Terminal Aerodrome Forecast
Issued by NWS

Home | Current Version | Previous Version | Text Only | Print | Product List | Glossary On
Versions: 1 2 3 4 5 6 7 8 9 10 11 12 13 14 15 16 17 18 19 20 21 22 23 24 25 26 27 28 29 30 31 32 33 34 35 36 37 38
000
FTUS45 KGJT 021203 AAA
TAFMTJ
TAF AMD
KMTJ 021203Z 0212/0312 14005KT P6SM VCSH SCT070 BKN100
      TEMPO 0212/0215 -SHRA BKN070
     FM021900 24005KT P6SM VCTS SCT060CB OVC090
      TEMPO 0220/0224 VRB20G30KT -TSRA BKN060CB
     FM030000 14010KT P6SM -SHRA VCTS BKN060CB OVC080
     FM030600 14006KT P6SM -SHRA BKN060 OVC080=

USA.gov is the U.S. government's official web portal to all federal, state and local government web resources and services.